sensor_id;sensor_type;location;lat;lon;timestamp;P1;durP1;ratioP1;P2;durP2;ratioP2
16354;SDS011;8287;51.644;8.494;2023-10-09T00:01:06;14.57;;;7.78;;
16354;SDS011;8287;51.644;8.494;2023-10-09T00:03:39;12.07;;;6.88;;
16354;SDS011;8287;51.644;8.494;2023-10-09T00:06:07;10.90;;;7.38;;
16354;SDS011;8287;51.644;8.494;2023-10-09T00:08:35;17.45;;;8.27;;
16354;SDS011;8287;51.644;8.494;2023-10-09T00:11:04;12.38;;;7.45;;
16354;SDS011;8287;51.644;8.494;2023-10-09T00:13:41;16.15;;;9.07;;
16354;SDS011;8287;51.644;8.494;2023-10-09T00:16:20;13.48;;;8.00;;
16354;SDS011;8287;51.644;8.494;2023-10-09T00:18:59;10.63;;;7.22;;
16354;SDS011;8287;51.644;8.494;2023-10-09T00:21:39;19.75;;;8.43;;
16354;SDS011;8287;51.644;8.494;2023-10-09T00:24:06;14.60;;;8.68;;
16354;SDS011;8287;51.644;8.494;2023-10-09T00:26:38;13.30;;;7.70;;
16354;SDS011;8287;51.644;8.494;2023-10-09T00:29:10;16.45;;;8.57;;
16354;SDS011;8287;51.644;8.494;2023-10-09T00:31:43;14.20;;;8.38;;
16354;SDS011;8287;51.644;8.494;2023-10-09T00:34:15;13.23;;;7.82;;
16354;SDS011;8287;51.644;8.494;2023-10-09T00:36:44;21.17;;;8.15;;
16354;SDS011;8287;51.644;8.494;2023-10-09T00:39:16;16.98;;;7.90;;
16354;SDS011;8287;51.644;8.494;2023-10-09T00:41:58;16.30;;;7.80;;
16354;SDS011;8287;51.644;8.494;2023-10-09T00:44:28;14.68;;;8.23;;
16354;SDS011;8287;51.644;8.494;2023-10-09T00:47:05;15.30;;;7.63;;
16354;SDS011;8287;51.644;8.494;2023-10-09T00:49:45;17.25;;;8.10;;
16354;SDS011;8287;51.644;8.494;2023-10-09T00:52:14;18.13;;;7.55;;
16354;SDS011;8287;51.644;8.494;2023-10-09T00:54:49;14.52;;;8.65;;
16354;SDS011;8287;51.644;8.494;2023-10-09T00:57:17;14.38;;;8.40;;
16354;SDS011;8287;51.644;8.494;2023-10-09T00:59:51;11.77;;;7.25;;
16354;SDS011;8287;51.644;8.494;2023-10-09T01:02:26;11.45;;;7.05;;
16354;SDS011;8287;51.644;8.494;2023-10-09T01:05:01;17.33;;;8.05;;
16354;SDS011;8287;51.644;8.494;2023-10-09T01:07:43;13.35;;;7.28;;
16354;SDS011;8287;51.644;8.494;2023-10-09T01:10:12;13.57;;;7.68;;
16354;SDS011;8287;51.644;8.494;2023-10-09T01:12:59;11.77;;;7.47;;
16354;SDS011;8287;51.644;8.494;2023-10-09T01:15:27;14.23;;;7.90;;
16354;SDS011;8287;51.644;8.494;2023-10-09T01:18:10;13.50;;;7.68;;
16354;SDS011;8287;51.644;8.494;2023-10-09T01:20:37;12.20;;;7.82;;
16354;SDS011;8287;51.644;8.494;2023-10-09T01:23:12;12.90;;;7.43;;
16354;SDS011;8287;51.644;8.494;2023-10-09T01:25:39;13.68;;;7.95;;
16354;SDS011;8287;51.644;8.494;2023-10-09T01:28:14;14.95;;;8.23;;
16354;SDS011;8287;51.644;8.494;2023-10-09T01:30:42;15.32;;;7.45;;
16354;SDS011;8287;51.644;8.494;2023-10-09T01:33:09;14.45;;;7.70;;
16354;SDS011;8287;51.644;8.494;2023-10-09T01:35:48;16.30;;;8.60;;
16354;SDS011;8287;51.644;8.494;2023-10-09T01:38:17;16.02;;;8.73;;
16354;SDS011;8287;51.644;8.494;2023-10-09T01:40:55;10.23;;;6.90;;
16354;SDS011;8287;51.644;8.494;2023-10-09T01:43:28;10.77;;;7.93;;
16354;SDS011;8287;51.644;8.494;2023-10-09T01:45:57;14.50;;;7.40;;
16354;SDS011;8287;51.644;8.494;2023-10-09T01:48:26;11.77;;;7.22;;
16354;SDS011;8287;51.644;8.494;2023-10-09T01:50:53;12.77;;;7.65;;
16354;SDS011;8287;51.644;8.494;2023-10-09T01:53:21;11.90;;;7.22;;
16354;SDS011;8287;51.644;8.494;2023-10-09T01:55:53;15.50;;;7.50;;
16354;SDS011;8287;51.644;8.494;2023-10-09T01:58:20;14.00;;;8.45;;
16354;SDS011;8287;51.644;8.494;2023-10-09T02:00:52;10.07;;;7.18;;
16354;SDS011;8287;51.644;8.494;2023-10-09T02:03:20;15.95;;;7.65;;
16354;SDS011;8287;51.644;8.494;2023-10-09T02:05:50;10.65;;;6.85;;
16354;SDS011;8287;51.644;8.494;2023-10-09T02:08:17;14.80;;;8.10;;
16354;SDS011;8287;51.644;8.494;2023-10-09T02:10:48;10.85;;;6.82;;
16354;SDS011;8287;51.644;8.494;2023-10-09T02:13:15;10.65;;;7.47;;
16354;SDS011;8287;51.644;8.494;2023-10-09T02:15:43;10.95;;;6.88;;
16354;SDS011;8287;51.644;8.494;2023-10-09T02:18:24;15.23;;;8.07;;
16354;SDS011;8287;51.644;8.494;2023-10-09T02:21:05;15.95;;;8.60;;
16354;SDS011;8287;51.644;8.494;2023-10-09T02:23:38;14.68;;;7.40;;
16354;SDS011;8287;51.644;8.494;2023-10-09T02:26:13;10.85;;;7.18;;
16354;SDS011;8287;51.644;8.494;2023-10-09T02:28:44;15.93;;;8.05;;
16354;SDS011;8287;51.644;8.494;2023-10-09T02:31:17;11.50;;;7.75;;
16354;SDS011;8287;51.644;8.494;2023-10-09T02:33:47;14.75;;;7.97;;
16354;SDS011;8287;51.644;8.494;2023-10-09T02:36:18;15.77;;;8.90;;
16354;SDS011;8287;51.644;8.494;2023-10-09T02:38:45;18.42;;;9.40;;
16354;SDS011;8287;51.644;8.494;2023-10-09T02:41:15;13.70;;;8.15;;
16354;SDS011;8287;51.644;8.494;2023-10-09T02:43:45;18.83;;;8.30;;
16354;SDS011;8287;51.644;8.494;2023-10-09T02:46:12;12.23;;;7.93;;
16354;SDS011;8287;51.644;8.494;2023-10-09T02:48:42;15.63;;;8.68;;
16354;SDS011;8287;51.644;8.494;2023-10-09T02:51:13;13.43;;;8.48;;
16354;SDS011;8287;51.644;8.494;2023-10-09T02:53:47;12.63;;;7.63;;
16354;SDS011;8287;51.644;8.494;2023-10-09T02:56:18;15.95;;;7.97;;
16354;SDS011;8287;51.644;8.494;2023-10-09T02:58:49;17.10;;;8.40;;
16354;SDS011;8287;51.644;8.494;2023-10-09T03:01:16;14.38;;;7.60;;
16354;SDS011;8287;51.644;8.494;2023-10-09T03:03:42;13.27;;;7.88;;
16354;SDS011;8287;51.644;8.494;2023-10-09T03:06:12;12.82;;;8.35;;
16354;SDS011;8287;51.644;8.494;2023-10-09T03:08:39;11.27;;;8.40;;
16354;SDS011;8287;51.644;8.494;2023-10-09T03:11:07;18.00;;;9.80;;
16354;SDS011;8287;51.644;8.494;2023-10-09T03:13:41;13.77;;;8.10;;
16354;SDS011;8287;51.644;8.494;2023-10-09T03:16:10;12.43;;;8.80;;
16354;SDS011;8287;51.644;8.494;2023-10-09T03:18:44;12.23;;;8.13;;
16354;SDS011;8287;51.644;8.494;2023-10-09T03:21:11;16.73;;;8.90;;
16354;SDS011;8287;51.644;8.494;2023-10-09T03:23:39;13.10;;;8.73;;
16354;SDS011;8287;51.644;8.494;2023-10-09T03:26:06;13.57;;;8.60;;
16354;SDS011;8287;51.644;8.494;2023-10-09T03:28:33;16.08;;;9.57;;
16354;SDS011;8287;51.644;8.494;2023-10-09T03:31:02;15.27;;;9.23;;
16354;SDS011;8287;51.644;8.494;2023-10-09T03:33:30;13.35;;;9.38;;
16354;SDS011;8287;51.644;8.494;2023-10-09T03:35:58;15.75;;;9.02;;
16354;SDS011;8287;51.644;8.494;2023-10-09T03:38:25;14.60;;;8.80;;
16354;SDS011;8287;51.644;8.494;2023-10-09T03:40:54;22.02;;;10.63;;
16354;SDS011;8287;51.644;8.494;2023-10-09T03:43:21;17.48;;;9.18;;
16354;SDS011;8287;51.644;8.494;2023-10-09T03:45:48;17.65;;;9.68;;
16354;SDS011;8287;51.644;8.494;2023-10-09T03:48:19;19.13;;;9.68;;
16354;SDS011;8287;51.644;8.494;2023-10-09T03:50:48;15.35;;;9.70;;
16354;SDS011;8287;51.644;8.494;2023-10-09T03:53:20;18.48;;;8.93;;
16354;SDS011;8287;51.644;8.494;2023-10-09T03:55:47;15.07;;;8.80;;
16354;SDS011;8287;51.644;8.494;2023-10-09T03:58:14;18.13;;;9.00;;
16354;SDS011;8287;51.644;8.494;2023-10-09T04:00:44;14.70;;;8.82;;
16354;SDS011;8287;51.644;8.494;2023-10-09T04:03:11;13.90;;;8.43;;
16354;SDS011;8287;51.644;8.494;2023-10-09T04:05:40;14.20;;;9.15;;
16354;SDS011;8287;51.644;8.494;2023-10-09T04:08:08;14.30;;;8.85;;
16354;SDS011;8287;51.644;8.494;2023-10-09T04:10:44;15.18;;;8.15;;
16354;SDS011;8287;51.644;8.494;2023-10-09T04:13:17;12.38;;;8.38;;
16354;SDS011;8287;51.644;8.494;2023-10-09T04:15:48;16.42;;;8.93;;
16354;SDS011;8287;51.644;8.494;2023-10-09T04:18:17;13.65;;;8.43;;
16354;SDS011;8287;51.644;8.494;2023-10-09T04:20:55;12.00;;;7.25;;
16354;SDS011;8287;51.644;8.494;2023-10-09T04:23:44;15.80;;;7.63;;
16354;SDS011;8287;51.644;8.494;2023-10-09T04:26:35;12.10;;;7.82;;
16354;SDS011;8287;51.644;8.494;2023-10-09T04:29:02;11.20;;;7.13;;
16354;SDS011;8287;51.644;8.494;2023-10-09T04:31:29;11.02;;;7.82;;
16354;SDS011;8287;51.644;8.494;2023-10-09T04:34:02;9.80;;;7.15;;
16354;SDS011;8287;51.644;8.494;2023-10-09T04:36:44;13.10;;;6.70;;
16354;SDS011;8287;51.644;8.494;2023-10-09T04:39:14;11.65;;;6.75;;
16354;SDS011;8287;51.644;8.494;2023-10-09T04:42:00;10.27;;;5.65;;
16354;SDS011;8287;51.644;8.494;2023-10-09T04:44:51;10.85;;;6.43;;
16354;SDS011;8287;51.644;8.494;2023-10-09T04:47:36;9.48;;;5.82;;
16354;SDS011;8287;51.644;8.494;2023-10-09T04:50:03;15.10;;;6.50;;
16354;SDS011;8287;51.644;8.494;2023-10-09T04:52:38;9.85;;;6.07;;
16354;SDS011;8287;51.644;8.494;2023-10-09T04:55:19;9.15;;;5.78;;
16354;SDS011;8287;51.644;8.494;2023-10-09T04:57:49;11.45;;;6.07;;
16354;SDS011;8287;51.644;8.494;2023-10-09T05:00:34;11.15;;;5.40;;
16354;SDS011;8287;51.644;8.494;2023-10-09T05:03:20;9.35;;;5.13;;
16354;SDS011;8287;51.644;8.494;2023-10-09T05:05:53;9.07;;;4.35;;
16354;SDS011;8287;51.644;8.494;2023-10-09T05:08:46;11.07;;;5.22;;
16354;SDS011;8287;51.644;8.494;2023-10-09T05:11:13;10.07;;;5.28;;
16354;SDS011;8287;51.644;8.494;2023-10-09T05:13:59;9.88;;;5.15;;
16354;SDS011;8287;51.644;8.494;2023-10-09T05:16:36;8.73;;;4.90;;
16354;SDS011;8287;51.644;8.494;2023-10-09T05:19:19;7.95;;;4.40;;
16354;SDS011;8287;51.644;8.494;2023-10-09T05:21:58;7.43;;;4.70;;
16354;SDS011;8287;51.644;8.494;2023-10-09T05:24:31;9.90;;;5.00;;
16354;SDS011;8287;51.644;8.494;2023-10-09T05:27:09;7.60;;;4.88;;
16354;SDS011;8287;51.644;8.494;2023-10-09T05:29:43;9.63;;;4.68;;
16354;SDS011;8287;51.644;8.494;2023-10-09T05:32:24;7.95;;;4.57;;
16354;SDS011;8287;51.644;8.494;2023-10-09T05:34:55;6.45;;;5.18;;
16354;SDS011;8287;51.644;8.494;2023-10-09T05:37:32;10.30;;;5.00;;
16354;SDS011;8287;51.644;8.494;2023-10-09T05:40:01;9.73;;;5.03;;
16354;SDS011;8287;51.644;8.494;2023-10-09T05:42:47;14.60;;;6.35;;
16354;SDS011;8287;51.644;8.494;2023-10-09T05:45:22;14.27;;;6.05;;
16354;SDS011;8287;51.644;8.494;2023-10-09T05:48:06;8.45;;;5.97;;
16354;SDS011;8287;51.644;8.494;2023-10-09T05:50:53;8.48;;;6.07;;
16354;SDS011;8287;51.644;8.494;2023-10-09T05:53:37;11.30;;;6.63;;
16354;SDS011;8287;51.644;8.494;2023-10-09T05:56:19;9.02;;;5.47;;
16354;SDS011;8287;51.644;8.494;2023-10-09T05:59:08;10.45;;;5.75;;
16354;SDS011;8287;51.644;8.494;2023-10-09T06:01:49;8.43;;;5.90;;
16354;SDS011;8287;51.644;8.494;2023-10-09T06:04:44;11.43;;;6.40;;
16354;SDS011;8287;51.644;8.494;2023-10-09T06:07:19;9.18;;;6.32;;
16354;SDS011;8287;51.644;8.494;2023-10-09T06:09:48;8.55;;;5.53;;
16354;SDS011;8287;51.644;8.494;2023-10-09T06:12:16;11.07;;;5.90;;
16354;SDS011;8287;51.644;8.494;2023-10-09T06:15:15;9.98;;;5.57;;
16354;SDS011;8287;51.644;8.494;2023-10-09T06:17:55;11.82;;;6.18;;
16354;SDS011;8287;51.644;8.494;2023-10-09T06:20:35;8.32;;;5.65;;
16354;SDS011;8287;51.644;8.494;2023-10-09T06:23:33;9.13;;;5.55;;
16354;SDS011;8287;51.644;8.494;2023-10-09T06:26:14;8.77;;;5.75;;
16354;SDS011;8287;51.644;8.494;2023-10-09T06:28:51;7.82;;;6.10;;
16354;SDS011;8287;51.644;8.494;2023-10-09T06:31:40;8.13;;;6.15;;
16354;SDS011;8287;51.644;8.494;2023-10-09T06:34:26;10.35;;;6.75;;
16354;SDS011;8287;51.644;8.494;2023-10-09T06:37:00;10.15;;;5.65;;
16354;SDS011;8287;51.644;8.494;2023-10-09T06:39:42;12.98;;;6.78;;
16354;SDS011;8287;51.644;8.494;2023-10-09T06:42:32;10.70;;;5.97;;
16354;SDS011;8287;51.644;8.494;2023-10-09T06:45:10;9.52;;;6.18;;
16354;SDS011;8287;51.644;8.494;2023-10-09T06:47:41;10.55;;;6.72;;
16354;SDS011;8287;51.644;8.494;2023-10-09T06:50:18;7.47;;;5.97;;
16354;SDS011;8287;51.644;8.494;2023-10-09T06:53:07;12.85;;;6.35;;
16354;SDS011;8287;51.644;8.494;2023-10-09T06:55:45;9.50;;;6.10;;
16354;SDS011;8287;51.644;8.494;2023-10-09T06:58:16;10.40;;;6.68;;
16354;SDS011;8287;51.644;8.494;2023-10-09T07:00:49;11.68;;;6.70;;
16354;SDS011;8287;51.644;8.494;2023-10-09T07:03:40;10.65;;;6.47;;
16354;SDS011;8287;51.644;8.494;2023-10-09T07:06:17;10.48;;;6.65;;
16354;SDS011;8287;51.644;8.494;2023-10-09T07:08:50;10.52;;;5.70;;
16354;SDS011;8287;51.644;8.494;2023-10-09T07:11:38;11.00;;;6.95;;
16354;SDS011;8287;51.644;8.494;2023-10-09T07:14:24;10.48;;;6.82;;
16354;SDS011;8287;51.644;8.494;2023-10-09T07:17:15;10.43;;;6.38;;
16354;SDS011;8287;51.644;8.494;2023-10-09T07:19:47;12.07;;;6.38;;
16354;SDS011;8287;51.644;8.494;2023-10-09T07:22:35;10.15;;;7.07;;
16354;SDS011;8287;51.644;8.494;2023-10-09T07:25:17;11.02;;;6.88;;
16354;SDS011;8287;51.644;8.494;2023-10-09T07:27:57;13.23;;;6.63;;
16354;SDS011;8287;51.644;8.494;2023-10-09T07:30:25;10.40;;;6.13;;
16354;SDS011;8287;51.644;8.494;2023-10-09T07:33:07;10.80;;;6.85;;
16354;SDS011;8287;51.644;8.494;2023-10-09T07:35:43;11.57;;;6.55;;
16354;SDS011;8287;51.644;8.494;2023-10-09T07:38:15;10.65;;;6.13;;
16354;SDS011;8287;51.644;8.494;2023-10-09T07:40:44;11.75;;;6.55;;
16354;SDS011;8287;51.644;8.494;2023-10-09T07:43:20;15.02;;;7.07;;
16354;SDS011;8287;51.644;8.494;2023-10-09T07:45:51;11.63;;;7.07;;
16354;SDS011;8287;51.644;8.494;2023-10-09T07:48:49;12.52;;;7.18;;
16354;SDS011;8287;51.644;8.494;2023-10-09T07:51:18;11.23;;;6.60;;
16354;SDS011;8287;51.644;8.494;2023-10-09T07:53:48;11.90;;;7.47;;
16354;SDS011;8287;51.644;8.494;2023-10-09T07:56:22;15.63;;;7.50;;
16354;SDS011;8287;51.644;8.494;2023-10-09T07:58:49;12.93;;;7.45;;
16354;SDS011;8287;51.644;8.494;2023-10-09T08:01:17;8.50;;;6.25;;
16354;SDS011;8287;51.644;8.494;2023-10-09T08:03:49;9.10;;;6.18;;
16354;SDS011;8287;51.644;8.494;2023-10-09T08:06:26;9.82;;;6.65;;
16354;SDS011;8287;51.644;8.494;2023-10-09T08:09:07;13.70;;;6.07;;
16354;SDS011;8287;51.644;8.494;2023-10-09T08:11:44;9.82;;;6.32;;
16354;SDS011;8287;51.644;8.494;2023-10-09T08:14:31;10.45;;;5.95;;
16354;SDS011;8287;51.644;8.494;2023-10-09T08:17:08;8.70;;;6.45;;
16354;SDS011;8287;51.644;8.494;2023-10-09T08:19:42;10.50;;;6.43;;
16354;SDS011;8287;51.644;8.494;2023-10-09T08:22:23;11.80;;;5.72;;
16354;SDS011;8287;51.644;8.494;2023-10-09T08:25:08;9.57;;;6.40;;
16354;SDS011;8287;51.644;8.494;2023-10-09T08:27:51;7.63;;;5.40;;
16354;SDS011;8287;51.644;8.494;2023-10-09T08:30:20;13.35;;;6.25;;
16354;SDS011;8287;51.644;8.494;2023-10-09T08:33:11;13.52;;;6.47;;
16354;SDS011;8287;51.644;8.494;2023-10-09T08:35:56;11.30;;;6.85;;
16354;SDS011;8287;51.644;8.494;2023-10-09T08:38:29;11.02;;;5.40;;
16354;SDS011;8287;51.644;8.494;2023-10-09T08:41:05;9.82;;;7.05;;
16354;SDS011;8287;51.644;8.494;2023-10-09T08:43:42;12.13;;;6.10;;
16354;SDS011;8287;51.644;8.494;2023-10-09T08:46:16;11.32;;;6.78;;
16354;SDS011;8287;51.644;8.494;2023-10-09T08:48:45;14.65;;;6.63;;
16354;SDS011;8287;51.644;8.494;2023-10-09T08:51:13;10.75;;;7.15;;
16354;SDS011;8287;51.644;8.494;2023-10-09T08:53:41;12.90;;;7.38;;
16354;SDS011;8287;51.644;8.494;2023-10-09T08:56:11;11.15;;;7.28;;
16354;SDS011;8287;51.644;8.494;2023-10-09T08:58:40;12.07;;;7.50;;
16354;SDS011;8287;51.644;8.494;2023-10-09T09:01:06;9.93;;;6.35;;
16354;SDS011;8287;51.644;8.494;2023-10-09T09:03:39;11.32;;;6.70;;
16354;SDS011;8287;51.644;8.494;2023-10-09T09:06:08;11.75;;;6.72;;
16354;SDS011;8287;51.644;8.494;2023-10-09T09:08:36;10.23;;;7.13;;
16354;SDS011;8287;51.644;8.494;2023-10-09T09:11:04;15.52;;;7.97;;
16354;SDS011;8287;51.644;8.494;2023-10-09T09:13:43;20.73;;;8.40;;
16354;SDS011;8287;51.644;8.494;2023-10-09T09:16:15;11.57;;;7.40;;
16354;SDS011;8287;51.644;8.494;2023-10-09T09:18:49;11.20;;;7.35;;
16354;SDS011;8287;51.644;8.494;2023-10-09T09:21:21;10.45;;;7.53;;
16354;SDS011;8287;51.644;8.494;2023-10-09T09:23:56;12.18;;;7.45;;
16354;SDS011;8287;51.644;8.494;2023-10-09T09:26:36;13.73;;;7.35;;
16354;SDS011;8287;51.644;8.494;2023-10-09T09:29:10;11.48;;;7.07;;
16354;SDS011;8287;51.644;8.494;2023-10-09T09:31:37;10.75;;;7.18;;
16354;SDS011;8287;51.644;8.494;2023-10-09T09:34:07;15.48;;;8.32;;
16354;SDS011;8287;51.644;8.494;2023-10-09T09:36:51;16.95;;;8.52;;
16354;SDS011;8287;51.644;8.494;2023-10-09T09:39:25;14.85;;;7.88;;
16354;SDS011;8287;51.644;8.494;2023-10-09T09:41:55;10.15;;;7.03;;
16354;SDS011;8287;51.644;8.494;2023-10-09T09:44:30;14.13;;;7.95;;
16354;SDS011;8287;51.644;8.494;2023-10-09T09:46:59;14.60;;;8.48;;
16354;SDS011;8287;51.644;8.494;2023-10-09T09:49:27;10.50;;;7.03;;
16354;SDS011;8287;51.644;8.494;2023-10-09T09:51:58;14.75;;;7.47;;
16354;SDS011;8287;51.644;8.494;2023-10-09T09:54:36;14.35;;;7.53;;
16354;SDS011;8287;51.644;8.494;2023-10-09T09:57:03;13.30;;;7.57;;
16354;SDS011;8287;51.644;8.494;2023-10-09T09:59:36;11.90;;;8.07;;
16354;SDS011;8287;51.644;8.494;2023-10-09T10:02:15;10.68;;;6.80;;
16354;SDS011;8287;51.644;8.494;2023-10-09T10:04:47;10.45;;;6.43;;
16354;SDS011;8287;51.644;8.494;2023-10-09T10:07:20;23.90;;;7.63;;
16354;SDS011;8287;51.644;8.494;2023-10-09T10:09:49;10.55;;;5.63;;
16354;SDS011;8287;51.644;8.494;2023-10-09T10:12:49;10.38;;;6.07;;
16354;SDS011;8287;51.644;8.494;2023-10-09T10:18:31;11.70;;;6.93;;
16354;SDS011;8287;51.644;8.494;2023-10-09T10:21:11;15.20;;;6.05;;
16354;SDS011;8287;51.644;8.494;2023-10-09T10:23:41;14.82;;;5.88;;
16354;SDS011;8287;51.644;8.494;2023-10-09T10:26:23;12.38;;;6.32;;
16354;SDS011;8287;51.644;8.494;2023-10-09T10:31:54;8.02;;;5.78;;
16354;SDS011;8287;51.644;8.494;2023-10-09T10:34:21;10.63;;;6.03;;
16354;SDS011;8287;51.644;8.494;2023-10-09T10:36:49;8.82;;;5.45;;
16354;SDS011;8287;51.644;8.494;2023-10-09T10:39:23;11.38;;;6.05;;
16354;SDS011;8287;51.644;8.494;2023-10-09T10:42:09;11.27;;;5.95;;
16354;SDS011;8287;51.644;8.494;2023-10-09T10:44:40;11.55;;;7.25;;
16354;SDS011;8287;51.644;8.494;2023-10-09T10:47:11;12.35;;;6.70;;
16354;SDS011;8287;51.644;8.494;2023-10-09T10:49:50;10.32;;;6.32;;
16354;SDS011;8287;51.644;8.494;2023-10-09T10:52:23;9.75;;;6.13;;
16354;SDS011;8287;51.644;8.494;2023-10-09T10:55:10;9.05;;;5.85;;
16354;SDS011;8287;51.644;8.494;2023-10-09T10:57:45;9.20;;;6.68;;
16354;SDS011;8287;51.644;8.494;2023-10-09T11:00:27;11.18;;;6.70;;
16354;SDS011;8287;51.644;8.494;2023-10-09T11:03:16;15.43;;;6.88;;
16354;SDS011;8287;51.644;8.494;2023-10-09T11:05:54;11.13;;;7.05;;
16354;SDS011;8287;51.644;8.494;2023-10-09T11:08:23;11.95;;;6.57;;
16354;SDS011;8287;51.644;8.494;2023-10-09T11:11:11;12.38;;;6.40;;
16354;SDS011;8287;51.644;8.494;2023-10-09T11:13:42;10.63;;;6.47;;
16354;SDS011;8287;51.644;8.494;2023-10-09T11:16:19;12.95;;;7.35;;
16354;SDS011;8287;51.644;8.494;2023-10-09T11:18:54;12.95;;;7.05;;
16354;SDS011;8287;51.644;8.494;2023-10-09T11:21:22;12.07;;;5.97;;
16354;SDS011;8287;51.644;8.494;2023-10-09T11:23:56;9.80;;;6.63;;
16354;SDS011;8287;51.644;8.494;2023-10-09T11:26:25;10.82;;;7.00;;
16354;SDS011;8287;51.644;8.494;2023-10-09T11:29:09;15.48;;;8.23;;
16354;SDS011;8287;51.644;8.494;2023-10-09T11:31:40;13.60;;;7.53;;
16354;SDS011;8287;51.644;8.494;2023-10-09T11:34:20;14.77;;;7.93;;
16354;SDS011;8287;51.644;8.494;2023-10-09T11:36:54;9.60;;;6.65;;
16354;SDS011;8287;51.644;8.494;2023-10-09T11:39:25;13.52;;;7.32;;
16354;SDS011;8287;51.644;8.494;2023-10-09T11:42:00;12.35;;;8.13;;
16354;SDS011;8287;51.644;8.494;2023-10-09T11:44:37;11.30;;;7.57;;
16354;SDS011;8287;51.644;8.494;2023-10-09T11:47:06;10.63;;;7.38;;
16354;SDS011;8287;51.644;8.494;2023-10-09T11:49:58;15.38;;;8.02;;
16354;SDS011;8287;51.644;8.494;2023-10-09T11:55:34;15.45;;;7.63;;
16354;SDS011;8287;51.644;8.494;2023-10-09T11:58:03;14.63;;;8.13;;
16354;SDS011;8287;51.644;8.494;2023-10-09T12:00:33;14.00;;;7.95;;
16354;SDS011;8287;51.644;8.494;2023-10-09T12:03:11;12.88;;;8.35;;
16354;SDS011;8287;51.644;8.494;2023-10-09T12:05:38;10.75;;;7.43;;
16354;SDS011;8287;51.644;8.494;2023-10-09T12:08:09;15.93;;;8.32;;
16354;SDS011;8287;51.644;8.494;2023-10-09T12:10:37;16.88;;;8.82;;
16354;SDS011;8287;51.644;8.494;2023-10-09T12:13:03;11.25;;;8.00;;
16354;SDS011;8287;51.644;8.494;2023-10-09T12:15:30;11.55;;;9.20;;
16354;SDS011;8287;51.644;8.494;2023-10-09T12:18:03;11.95;;;9.45;;
16354;SDS011;8287;51.644;8.494;2023-10-09T12:20:40;15.27;;;8.98;;
16354;SDS011;8287;51.644;8.494;2023-10-09T12:23:06;13.90;;;9.43;;
16354;SDS011;8287;51.644;8.494;2023-10-09T12:25:34;14.25;;;9.32;;
16354;SDS011;8287;51.644;8.494;2023-10-09T12:28:02;14.82;;;9.23;;
16354;SDS011;8287;51.644;8.494;2023-10-09T12:30:29;12.68;;;8.98;;
16354;SDS011;8287;51.644;8.494;2023-10-09T12:33:04;17.65;;;8.90;;
16354;SDS011;8287;51.644;8.494;2023-10-09T12:35:35;19.58;;;10.25;;
16354;SDS011;8287;51.644;8.494;2023-10-09T12:38:03;16.00;;;9.93;;
16354;SDS011;8287;51.644;8.494;2023-10-09T12:40:33;13.70;;;9.63;;
16354;SDS011;8287;51.644;8.494;2023-10-09T12:43:01;17.80;;;9.38;;
16354;SDS011;8287;51.644;8.494;2023-10-09T12:45:28;13.02;;;9.00;;
16354;SDS011;8287;51.644;8.494;2023-10-09T12:47:57;14.75;;;8.98;;
16354;SDS011;8287;51.644;8.494;2023-10-09T12:50:29;15.60;;;10.15;;
16354;SDS011;8287;51.644;8.494;2023-10-09T12:52:58;15.38;;;10.18;;
16354;SDS011;8287;51.644;8.494;2023-10-09T12:55:27;13.45;;;9.43;;
16354;SDS011;8287;51.644;8.494;2023-10-09T12:58:00;16.48;;;9.98;;
16354;SDS011;8287;51.644;8.494;2023-10-09T13:00:31;14.82;;;10.02;;
16354;SDS011;8287;51.644;8.494;2023-10-09T13:03:02;14.60;;;10.43;;
16354;SDS011;8287;51.644;8.494;2023-10-09T13:05:42;16.23;;;9.85;;
16354;SDS011;8287;51.644;8.494;2023-10-09T13:08:17;13.70;;;9.15;;
16354;SDS011;8287;51.644;8.494;2023-10-09T13:10:46;17.77;;;9.27;;
16354;SDS011;8287;51.644;8.494;2023-10-09T13:13:19;15.63;;;9.80;;
16354;SDS011;8287;51.644;8.494;2023-10-09T13:15:46;15.30;;;9.32;;
16354;SDS011;8287;51.644;8.494;2023-10-09T13:18:12;14.07;;;10.07;;
16354;SDS011;8287;51.644;8.494;2023-10-09T13:20:40;14.18;;;9.50;;
16354;SDS011;8287;51.644;8.494;2023-10-09T13:23:07;12.90;;;9.20;;
16354;SDS011;8287;51.644;8.494;2023-10-09T13:25:39;15.60;;;9.68;;
16354;SDS011;8287;51.644;8.494;2023-10-09T13:28:06;16.75;;;10.27;;
16354;SDS011;8287;51.644;8.494;2023-10-09T13:30:37;13.40;;;9.40;;
16354;SDS011;8287;51.644;8.494;2023-10-09T13:33:14;13.10;;;8.77;;
16354;SDS011;8287;51.644;8.494;2023-10-09T13:35:42;16.48;;;10.05;;
16354;SDS011;8287;51.644;8.494;2023-10-09T13:38:17;18.50;;;9.95;;
16354;SDS011;8287;51.644;8.494;2023-10-09T13:40:43;17.05;;;9.27;;
16354;SDS011;8287;51.644;8.494;2023-10-09T13:43:10;17.02;;;9.18;;
16354;SDS011;8287;51.644;8.494;2023-10-09T13:45:41;18.80;;;9.57;;
16354;SDS011;8287;51.644;8.494;2023-10-09T13:48:14;14.35;;;8.60;;
16354;SDS011;8287;51.644;8.494;2023-10-09T13:50:42;12.38;;;8.82;;
16354;SDS011;8287;51.644;8.494;2023-10-09T13:53:09;14.90;;;9.23;;
16354;SDS011;8287;51.644;8.494;2023-10-09T13:55:39;18.67;;;8.70;;
16354;SDS011;8287;51.644;8.494;2023-10-09T13:58:08;10.52;;;8.55;;
16354;SDS011;8287;51.644;8.494;2023-10-09T14:00:38;12.93;;;8.65;;
16354;SDS011;8287;51.644;8.494;2023-10-09T14:03:07;13.45;;;8.93;;
16354;SDS011;8287;51.644;8.494;2023-10-09T14:05:38;13.38;;;8.52;;
16354;SDS011;8287;51.644;8.494;2023-10-09T14:08:17;13.82;;;9.15;;
16354;SDS011;8287;51.644;8.494;2023-10-09T14:10:48;13.45;;;8.18;;
16354;SDS011;8287;51.644;8.494;2023-10-09T14:13:15;15.68;;;8.95;;
16354;SDS011;8287;51.644;8.494;2023-10-09T14:15:42;16.08;;;8.75;;
16354;SDS011;8287;51.644;8.494;2023-10-09T14:18:11;12.82;;;7.93;;
16354;SDS011;8287;51.644;8.494;2023-10-09T14:20:38;16.00;;;8.70;;
16354;SDS011;8287;51.644;8.494;2023-10-09T14:23:06;17.23;;;9.25;;
16354;SDS011;8287;51.644;8.494;2023-10-09T14:25:35;20.85;;;9.43;;
16354;SDS011;8287;51.644;8.494;2023-10-09T14:28:07;14.23;;;8.35;;
16354;SDS011;8287;51.644;8.494;2023-10-09T14:30:34;13.77;;;8.45;;
16354;SDS011;8287;51.644;8.494;2023-10-09T14:33:07;18.15;;;8.93;;
16354;SDS011;8287;51.644;8.494;2023-10-09T14:35:37;18.50;;;8.65;;
16354;SDS011;8287;51.644;8.494;2023-10-09T14:38:05;18.08;;;7.60;;
16354;SDS011;8287;51.644;8.494;2023-10-09T14:40:37;15.98;;;8.35;;
16354;SDS011;8287;51.644;8.494;2023-10-09T14:43:08;14.60;;;8.10;;
16354;SDS011;8287;51.644;8.494;2023-10-09T14:45:44;14.23;;;7.55;;
16354;SDS011;8287;51.644;8.494;2023-10-09T14:48:13;14.48;;;7.50;;
16354;SDS011;8287;51.644;8.494;2023-10-09T14:50:45;13.80;;;8.02;;
16354;SDS011;8287;51.644;8.494;2023-10-09T14:53:13;13.70;;;7.93;;
16354;SDS011;8287;51.644;8.494;2023-10-09T14:55:40;17.30;;;8.43;;
16354;SDS011;8287;51.644;8.494;2023-10-09T14:58:11;18.85;;;8.50;;
16354;SDS011;8287;51.644;8.494;2023-10-09T15:00:38;16.25;;;8.82;;
16354;SDS011;8287;51.644;8.494;2023-10-09T15:03:11;10.88;;;7.70;;
16354;SDS011;8287;51.644;8.494;2023-10-09T15:05:39;8.68;;;6.90;;
16354;SDS011;8287;51.644;8.494;2023-10-09T15:08:07;14.35;;;8.00;;
16354;SDS011;8287;51.644;8.494;2023-10-09T15:10:36;14.98;;;7.43;;
16354;SDS011;8287;51.644;8.494;2023-10-09T15:13:09;14.77;;;7.22;;
16354;SDS011;8287;51.644;8.494;2023-10-09T15:15:41;10.95;;;7.88;;
16354;SDS011;8287;51.644;8.494;2023-10-09T15:18:08;20.45;;;11.43;;
16354;SDS011;8287;51.644;8.494;2023-10-09T15:20:37;19.10;;;13.40;;
16354;SDS011;8287;51.644;8.494;2023-10-09T15:23:04;12.70;;;8.35;;
16354;SDS011;8287;51.644;8.494;2023-10-09T15:25:31;15.55;;;8.52;;
16354;SDS011;8287;51.644;8.494;2023-10-09T15:27:59;18.85;;;8.10;;
16354;SDS011;8287;51.644;8.494;2023-10-09T15:30:25;10.57;;;7.45;;
16354;SDS011;8287;51.644;8.494;2023-10-09T15:32:53;13.20;;;8.50;;
16354;SDS011;8287;51.644;8.494;2023-10-09T15:35:22;15.32;;;8.20;;